Time,TemperatureF,DewpointF,PressureIn,WindDirection,WindDirectionDegrees,WindSpeedMPH,WindSpeedGustMPH,Humidity,HourlyPrecipIn,Conditions,Clouds,dailyrainin,SoftwareType,DateUTC
2013-03-27 00:03:00,37.0,28.0,30.29,WSW,250,6.0,12.0,69,0.00,,,0.84,,2013-03-27 04:03:00,
2013-03-27 00:13:00,37.0,28.0,30.29,WSW,250,6.0,12.0,69,0.00,,,0.84,,2013-03-27 04:13:00,
2013-03-27 00:23:00,37.0,28.0,30.30,SW,233,8.0,13.0,70,0.00,,,0.01,,2013-03-27 04:23:00,
2013-03-27 00:33:00,37.0,28.0,30.29,North,0,3.0,5.0,69,0.00,,,0.00,,2013-03-27 04:33:00,
2013-03-27 00:42:00,37.0,28.0,30.29,North,0,3.0,5.0,69,0.00,,,0.00,,2013-03-27 04:42:00,
2013-03-27 00:52:00,37.0,28.0,30.30,WNW,297,5.0,7.0,70,0.00,,,0.00,,2013-03-27 04:52:00,
2013-03-27 01:02:00,37.0,28.0,30.30,West,266,4.0,6.0,71,0.00,,,0.00,,2013-03-27 05:02:00,
2013-03-27 01:12:00,37.0,28.0,30.30,West,266,4.0,6.0,71,0.00,,,0.00,,2013-03-27 05:12:00,
2013-03-27 01:23:00,37.0,29.0,30.30,West,278,6.0,8.0,73,0.00,,,0.01,,2013-03-27 05:23:00,
2013-03-27 01:33:00,37.0,29.0,30.30,SSW,211,4.0,5.0,74,0.00,,,0.01,,2013-03-27 05:33:00,
2013-03-27 01:42:00,37.0,29.0,30.30,SSW,211,4.0,5.0,74,0.00,,,0.01,,2013-03-27 05:42:00,
2013-03-27 01:53:00,37.0,29.0,30.30,West,259,3.0,8.0,74,0.00,,,0.01,,2013-03-27 05:53:00,
2013-03-27 02:02:00,37.0,29.0,30.29,NNW,329,3.0,5.0,74,0.00,,,0.01,,2013-03-27 06:02:00,
2013-03-27 02:12:00,37.0,29.0,30.29,NNW,329,3.0,5.0,74,0.00,,,0.01,,2013-03-27 06:12:00,
2013-03-27 02:22:00,37.0,29.0,30.30,SW,236,9.0,13.0,72,0.00,,,0.01,,2013-03-27 06:22:00,
2013-03-27 02:32:00,37.0,29.0,30.30,WSW,256,9.0,12.0,72,0.00,,,0.01,,2013-03-27 06:32:00,
2013-03-27 02:42:00,37.0,29.0,30.30,WSW,256,9.0,12.0,72,0.00,,,0.01,,2013-03-27 06:42:00,
2013-03-27 02:52:00,37.0,28.0,30.30,ENE,70,7.0,10.0,71,0.00,,,0.01,,2013-03-27 06:52:00,
2013-03-27 03:02:00,37.0,28.0,30.29,West,260,4.0,6.0,71,0.00,,,0.01,,2013-03-27 07:02:00,
2013-03-27 03:12:00,37.0,28.0,30.29,West,260,4.0,6.0,71,0.00,,,0.01,,2013-03-27 07:12:00,
2013-03-27 03:22:00,37.0,28.0,30.29,NW,318,4.0,8.0,71,0.00,,,0.01,,2013-03-27 07:22:00,
2013-03-27 03:32:00,37.0,29.0,30.29,West,269,7.0,18.0,72,0.00,,,0.01,,2013-03-27 07:32:00,
2013-03-27 03:42:00,37.0,29.0,30.29,West,269,7.0,18.0,72,0.00,,,0.01,,2013-03-27 07:42:00,
2013-03-27 03:53:00,37.0,29.0,30.29,ENE,77,2.0,9.0,73,0.00,,,0.01,,2013-03-27 07:53:00,
2013-03-27 04:02:00,37.0,29.0,30.29,North,359,8.0,12.0,73,0.00,,,0.01,,2013-03-27 08:02:00,
2013-03-27 04:12:00,37.0,29.0,30.29,North,359,8.0,12.0,73,0.00,,,0.01,,2013-03-27 08:12:00,
2013-03-27 04:22:00,37.0,29.0,30.29,NNE,17,8.0,17.0,72,0.00,,,0.01,,2013-03-27 08:22:00,
2013-03-27 04:32:00,37.0,29.0,30.28,NNW,333,7.0,14.0,72,0.00,,,0.01,,2013-03-27 08:32:00,
2013-03-27 04:43:00,37.0,29.0,30.28,NNW,333,7.0,14.0,72,0.00,,,0.01,,2013-03-27 08:43:00,
2013-03-27 04:52:00,37.0,28.0,30.29,NNW,340,6.0,13.0,71,0.00,,,0.01,,2013-03-27 08:52:00,
2013-03-27 05:02:00,36.0,28.0,30.29,NNW,347,5.0,9.0,72,0.00,,,0.01,,2013-03-27 09:02:00,
2013-03-27 05:12:00,36.0,28.0,30.29,NNW,347,5.0,9.0,72,0.00,,,0.01,,2013-03-27 09:12:00,
2013-03-27 05:22:00,36.0,26.0,30.29,North,359,8.0,11.0,67,0.00,,,0.01,,2013-03-27 09:22:00,
2013-03-27 05:33:00,36.0,26.0,30.29,NW,309,11.0,24.0,66,0.00,,,0.01,,2013-03-27 09:33:00,
2013-03-27 05:42:00,36.0,26.0,30.29,NW,309,11.0,24.0,66,0.00,,,0.01,,2013-03-27 09:42:00,
2013-03-27 05:52:00,36.0,26.0,30.29,NW,325,6.0,9.0,67,0.00,,,0.01,,2013-03-27 09:52:00,
2013-03-27 06:02:00,36.0,25.0,30.30,SE,135,9.0,19.0,65,0.00,,,0.01,,2013-03-27 10:02:00,
2013-03-27 06:12:00,36.0,25.0,30.30,SE,135,9.0,19.0,65,0.00,,,0.01,,2013-03-27 10:12:00,
2013-03-27 06:23:00,36.0,26.0,30.30,West,273,3.0,7.0,67,0.00,,,0.01,,2013-03-27 10:23:00,
2013-03-27 06:32:00,36.0,26.0,30.31,NW,315,3.0,10.0,68,0.00,,,0.01,,2013-03-27 10:32:00,
2013-03-27 06:42:00,36.0,26.0,30.31,NW,315,3.0,10.0,68,0.00,,,0.01,,2013-03-27 10:42:00,
2013-03-27 06:52:00,36.0,26.0,30.31,NE,34,8.0,10.0,66,0.00,,,0.01,,2013-03-27 10:52:00,
2013-03-27 07:02:00,36.0,26.0,30.32,North,7,7.0,10.0,66,0.00,,,0.01,,2013-03-27 11:02:00,
2013-03-27 07:12:00,36.0,26.0,30.32,North,7,7.0,10.0,66,0.00,,,0.01,,2013-03-27 11:12:00,
2013-03-27 07:22:00,36.0,26.0,30.32,WNW,302,3.0,4.0,67,0.00,,,0.01,,2013-03-27 11:22:00,
2013-03-27 07:32:00,36.0,26.0,30.33,North,11,7.0,13.0,67,0.00,,,0.01,,2013-03-27 11:32:00,
2013-03-27 07:42:00,36.0,26.0,30.33,North,11,7.0,13.0,67,0.00,,,0.01,,2013-03-27 11:42:00,
2013-03-27 07:53:00,36.0,26.0,30.33,North,359,10.0,14.0,67,0.00,,,0.01,,2013-03-27 11:53:00,
2013-03-27 08:02:00,36.0,26.0,30.34,NE,42,9.0,18.0,67,0.00,,,0.01,,2013-03-27 12:02:00,
2013-03-27 08:12:00,36.0,26.0,30.34,NE,42,9.0,18.0,67,0.00,,,0.01,,2013-03-27 12:12:00,
2013-03-27 08:23:00,36.0,26.0,30.35,ENE,66,7.0,12.0,68,0.00,,,0.01,,2013-03-27 12:23:00,
2013-03-27 08:32:00,37.0,27.0,30.37,NE,46,6.0,11.0,67,0.00,,,0.01,,2013-03-27 12:32:00,
2013-03-27 08:43:00,37.0,27.0,30.37,NE,46,6.0,11.0,67,0.00,,,0.01,,2013-03-27 12:43:00,
2013-03-27 08:52:00,37.0,28.0,30.36,WNW,293,5.0,10.0,69,0.00,,,0.01,,2013-03-27 12:52:00,
2013-03-27 09:02:00,38.0,29.0,30.36,WSW,250,5.0,8.0,70,0.00,,,0.01,,2013-03-27 13:02:00,
2013-03-27 09:12:00,38.0,29.0,30.36,WSW,250,5.0,8.0,70,0.00,,,0.01,,2013-03-27 13:12:00,
2013-03-27 09:22:00,38.0,27.0,30.36,NNW,347,7.0,13.0,65,0.00,,,0.01,,2013-03-27 13:22:00,
2013-03-27 09:32:00,39.0,27.0,30.36,ENE,58,8.0,16.0,63,0.00,,,0.01,,2013-03-27 13:32:00,
2013-03-27 09:42:00,39.0,27.0,30.36,ENE,58,8.0,16.0,63,0.00,,,0.01,,2013-03-27 13:42:00,
2013-03-27 09:52:00,40.0,27.0,30.36,WNW,297,5.0,6.0,59,0.00,,,0.01,,2013-03-27 13:52:00,
2013-03-27 10:02:00,40.0,27.0,30.37,WSW,238,1.0,6.0,59,0.00,,,0.01,,2013-03-27 14:02:00,
2013-03-27 10:12:00,40.0,27.0,30.37,WSW,238,1.0,6.0,59,0.00,,,0.01,,2013-03-27 14:12:00,
2013-03-27 10:22:00,40.0,26.0,30.37,NNW,345,6.0,14.0,56,0.00,,,0.01,,2013-03-27 14:22:00,
2013-03-27 10:32:00,41.0,26.0,30.38,WNW,295,5.0,9.0,54,0.00,,,0.01,,2013-03-27 14:32:00,
2013-03-27 10:42:00,41.0,26.0,30.38,WNW,295,5.0,9.0,54,0.00,,,0.01,,2013-03-27 14:42:00,
2013-03-27 10:52:00,43.0,28.0,30.38,NNE,31,6.0,11.0,54,0.00,,,0.01,,2013-03-27 14:52:00,
2013-03-27 11:02:00,43.0,27.0,30.38,NNE,24,6.0,12.0,52,0.00,,,0.01,,2013-03-27 15:02:00,
2013-03-27 11:12:00,43.0,27.0,30.38,NNE,24,6.0,12.0,52,0.00,,,0.01,,2013-03-27 15:12:00,
2013-03-27 11:22:00,45.0,27.0,30.38,NE,46,7.0,13.0,49,0.00,,,0.01,,2013-03-27 15:22:00,
2013-03-27 11:33:00,46.0,28.0,30.38,NE,55,5.0,8.0,50,0.00,,,0.01,,2013-03-27 15:33:00,
2013-03-27 11:42:00,46.0,28.0,30.38,NE,55,5.0,8.0,50,0.00,,,0.01,,2013-03-27 15:42:00,
2013-03-27 11:52:00,46.0,29.0,30.38,NNE,14,8.0,14.0,52,0.00,,,0.01,,2013-03-27 15:52:00,
2013-03-27 12:03:00,45.0,30.0,30.38,SE,134,3.0,5.0,55,0.00,,,0.01,,2013-03-27 16:03:00,
2013-03-27 12:13:00,45.0,30.0,30.38,SE,134,3.0,5.0,55,0.00,,,0.01,,2013-03-27 16:13:00,
2013-03-27 12:22:00,47.0,28.0,30.38,NE,52,6.0,10.0,47,0.00,,,0.01,,2013-03-27 16:22:00,
2013-03-27 12:32:00,46.0,28.0,30.38,SW,231,4.0,8.0,50,0.00,,,0.01,,2013-03-27 16:32:00,
2013-03-27 12:42:00,46.0,28.0,30.38,SW,231,4.0,8.0,50,0.00,,,0.01,,2013-03-27 16:42:00,
2013-03-27 12:52:00,46.0,28.0,30.38,SE,142,8.0,15.0,49,0.00,,,0.01,,2013-03-27 16:52:00,
2013-03-27 13:03:00,46.0,29.0,30.37,NW,325,2.0,4.0,51,0.00,,,0.01,,2013-03-27 17:03:00,
2013-03-27 13:12:00,46.0,29.0,30.37,NW,325,2.0,4.0,51,0.00,,,0.01,,2013-03-27 17:12:00,
2013-03-27 13:22:00,46.0,29.0,30.37,NNW,338,3.0,8.0,51,0.00,,,0.01,,2013-03-27 17:22:00,
2013-03-27 13:32:00,51.0,30.0,30.37,West,262,7.0,13.0,44,0.00,,,0.01,,2013-03-27 17:32:00,
2013-03-27 13:44:00,51.0,30.0,30.37,West,262,7.0,13.0,44,0.00,,,0.01,,2013-03-27 17:44:00,
2013-03-27 14:02:00,52.0,30.0,30.36,North,3,2.0,5.0,43,0.00,,,0.01,,2013-03-27 18:02:00,
2013-03-27 14:12:00,52.0,30.0,30.36,North,3,2.0,5.0,43,0.00,,,0.01,,2013-03-27 18:12:00,
2013-03-27 14:22:00,52.0,28.0,30.35,WNW,300,5.0,9.0,40,0.00,,,0.01,,2013-03-27 18:22:00,
2013-03-27 14:32:00,53.0,29.0,30.35,NNE,13,7.0,10.0,40,0.00,,,0.01,,2013-03-27 18:32:00,
2013-03-27 14:42:00,53.0,29.0,30.35,NNE,13,7.0,10.0,40,0.00,,,0.01,,2013-03-27 18:42:00,
2013-03-27 14:52:00,52.0,29.0,30.33,North,356,2.0,4.0,41,0.00,,,0.01,,2013-03-27 18:52:00,
2013-03-27 15:02:00,54.0,28.0,30.32,SE,131,5.0,13.0,37,0.00,,,0.01,,2013-03-27 19:02:00,
2013-03-27 15:12:00,54.0,28.0,30.32,SE,131,5.0,13.0,37,0.00,,,0.01,,2013-03-27 19:12:00,
2013-03-27 15:22:00,56.0,29.0,30.32,NW,319,5.0,8.0,36,0.00,,,0.01,,2013-03-27 19:22:00,
2013-03-27 15:32:00,54.0,29.0,30.31,North,359,5.0,7.0,38,0.00,,,0.01,,2013-03-27 19:32:00,
2013-03-27 15:42:00,54.0,29.0,30.31,North,359,5.0,7.0,38,0.00,,,0.01,,2013-03-27 19:42:00,
2013-03-27 15:52:00,55.0,29.0,30.30,North,359,4.0,8.0,36,0.00,,,0.01,,2013-03-27 19:52:00,
2013-03-27 16:02:00,56.0,29.0,30.30,North,11,6.0,9.0,36,0.00,,,0.01,,2013-03-27 20:02:00,
2013-03-27 16:12:00,56.0,29.0,30.30,North,11,6.0,9.0,36,0.00,,,0.01,,2013-03-27 20:12:00,
2013-03-27 16:22:00,55.0,29.0,30.30,NW,316,4.0,8.0,37,0.00,,,0.01,,2013-03-27 20:22:00,
2013-03-27 16:32:00,55.0,30.0,30.29,ENE,75,6.0,9.0,38,0.00,,,0.01,,2013-03-27 20:32:00,
2013-03-27 16:42:00,55.0,30.0,30.29,ENE,75,6.0,9.0,38,0.00,,,0.01,,2013-03-27 20:42:00,
2013-03-27 16:52:00,55.0,30.0,30.29,WNW,294,6.0,9.0,38,0.00,,,0.01,,2013-03-27 20:52:00,
2013-03-27 17:02:00,55.0,30.0,30.29,NNW,340,2.0,4.0,38,0.00,,,0.01,,2013-03-27 21:02:00,
2013-03-27 17:12:00,55.0,30.0,30.29,NNW,340,2.0,4.0,38,0.00,,,0.01,,2013-03-27 21:12:00,
2013-03-27 17:22:00,56.0,30.0,30.28,SSW,197,3.0,6.0,37,0.00,,,0.01,,2013-03-27 21:22:00,
2013-03-27 17:32:00,55.0,30.0,30.28,NNW,330,2.0,3.0,38,0.00,,,0.01,,2013-03-27 21:32:00,
2013-03-27 17:43:00,55.0,30.0,30.28,NNW,330,2.0,3.0,38,0.00,,,0.01,,2013-03-27 21:43:00,
2013-03-27 17:52:00,53.0,30.0,30.28,ENE,73,0.0,1.0,41,0.00,,,0.01,,2013-03-27 21:52:00,
2013-03-27 18:03:00,53.0,30.0,30.28,NNW,338,2.0,5.0,41,0.00,,,0.01,,2013-03-27 22:03:00,
2013-03-27 18:12:00,53.0,30.0,30.28,NNW,338,2.0,5.0,41,0.00,,,0.01,,2013-03-27 22:12:00,
2013-03-27 18:23:00,53.0,31.0,30.28,WNW,287,3.0,4.0,42,0.00,,,0.01,,2013-03-27 22:23:00,
2013-03-27 18:33:00,52.0,31.0,30.29,NW,325,4.0,5.0,44,0.00,,,0.01,,2013-03-27 22:33:00,
2013-03-27 18:42:00,52.0,31.0,30.29,NW,325,4.0,5.0,44,0.00,,,0.01,,2013-03-27 22:42:00,
2013-03-27 18:52:00,52.0,31.0,30.30,NW,307,2.0,4.0,44,0.00,,,0.01,,2013-03-27 22:52:00,
2013-03-27 19:02:00,51.0,29.0,30.30,NW,322,4.0,6.0,43,0.00,,,0.01,,2013-03-27 23:02:00,
2013-03-27 19:12:00,51.0,29.0,30.30,NW,322,4.0,6.0,43,0.00,,,0.01,,2013-03-27 23:12:00,
2013-03-27 19:22:00,50.0,30.0,30.30,ENE,59,5.0,9.0,46,0.00,,,0.01,,2013-03-27 23:22:00,
2013-03-27 19:32:00,48.0,29.0,30.30,North,354,5.0,6.0,47,0.00,,,0.01,,2013-03-27 23:32:00,
2013-03-27 19:42:00,48.0,29.0,30.30,North,354,5.0,6.0,47,0.00,,,0.01,,2013-03-27 23:42:00,
2013-03-27 19:52:00,47.0,28.0,30.30,NNW,329,6.0,10.0,48,0.00,,,0.01,,2013-03-27 23:52:00,
2013-03-27 20:02:00,47.0,29.0,30.31,WSW,256,4.0,7.0,49,0.00,,,0.01,,2013-03-28 00:02:00,
2013-03-27 20:12:00,47.0,29.0,30.31,WSW,256,4.0,7.0,49,0.00,,,0.01,,2013-03-28 00:12:00,
2013-03-27 20:22:00,46.0,29.0,30.31,NNE,14,6.0,11.0,51,0.00,,,0.01,,2013-03-28 00:22:00,
2013-03-27 20:33:00,45.0,28.0,30.32,ENE,58,4.0,7.0,52,0.00,,,0.01,,2013-03-28 00:33:00,
2013-03-27 20:43:00,45.0,28.0,30.32,ENE,58,4.0,7.0,52,0.00,,,0.01,,2013-03-28 00:43:00,
2013-03-27 20:52:00,45.0,28.0,30.32,ENE,60,6.0,11.0,52,0.00,,,0.01,,2013-03-28 00:52:00,
2013-03-27 21:02:00,44.0,28.0,30.32,WNW,284,7.0,10.0,54,0.00,,,0.01,,2013-03-28 01:02:00,
2013-03-27 21:12:00,44.0,28.0,30.32,WNW,284,7.0,10.0,54,0.00,,,0.01,,2013-03-28 01:12:00,
2013-03-27 21:22:00,43.0,28.0,30.32,ESE,122,2.0,4.0,56,0.00,,,0.01,,2013-03-28 01:22:00,
2013-03-27 21:32:00,43.0,28.0,30.32,ESE,107,4.0,9.0,56,0.00,,,0.01,,2013-03-28 01:32:00,
2013-03-27 21:42:00,43.0,28.0,30.32,ESE,107,4.0,9.0,56,0.00,,,0.01,,2013-03-28 01:42:00,
2013-03-27 21:52:00,43.0,29.0,30.32,SSW,194,3.0,6.0,57,0.00,,,0.01,,2013-03-28 01:52:00,
2013-03-27 22:02:00,43.0,29.0,30.33,NNE,13,4.0,8.0,57,0.00,,,0.01,,2013-03-28 02:02:00,
2013-03-27 22:12:00,43.0,29.0,30.33,NNE,13,4.0,8.0,57,0.00,,,0.01,,2013-03-28 02:12:00,
2013-03-27 22:22:00,43.0,29.0,30.33,East,93,5.0,10.0,57,0.00,,,0.01,,2013-03-28 02:22:00,
2013-03-27 22:32:00,42.0,28.0,30.34,North,7,6.0,10.0,57,0.00,,,0.01,,2013-03-28 02:32:00,
2013-03-27 22:42:00,42.0,28.0,30.34,North,7,6.0,10.0,57,0.00,,,0.01,,2013-03-28 02:42:00,
2013-03-27 22:52:00,42.0,28.0,30.34,North,7,6.0,10.0,57,0.00,,,0.01,,2013-03-28 02:52:00,
2013-03-27 23:02:00,42.0,29.0,30.35,SSE,149,5.0,8.0,60,0.00,,,0.01,,2013-03-28 03:02:00,
2013-03-27 23:12:00,42.0,29.0,30.35,SSE,149,5.0,8.0,60,0.00,,,0.01,,2013-03-28 03:12:00,
2013-03-27 23:22:00,41.0,28.0,30.35,East,79,9.0,16.0,60,0.00,,,0.01,,2013-03-28 03:22:00,
2013-03-27 23:33:00,41.0,28.0,30.35,ESE,113,7.0,10.0,60,0.00,,,0.01,,2013-03-28 03:33:00,
2013-03-27 23:43:00,41.0,28.0,30.35,ESE,113,7.0,10.0,60,0.00,,,0.01,,2013-03-28 03:43:00,
2013-03-27 23:53:00,41.0,28.0,30.35,East,84,8.0,11.0,59,0.00,,,0.01,,2013-03-28 03:53:00,